Hovedside
METAR-TAF:

METAR-TAF

Lufthavner :

Exeter, England

breddegrad: 50-44N, lengdegrad: 003-25W, høyde over havet: 30 m

Gjeldene værobservasjon

Denne rapporten ble laget for 36 minutter siden, klokken 12:50 UTC
Vind 4 kt fra Nordøst, skiftende mellom Nord og Øst
Temperatur 6°C
Luftfuktighet 100%
Trykk 1031 hPa
Sikt: 7000 m
Overskyet i en høyde av 800 ft

METAR: EGTE 231250Z 05004KT 010V080 7000 OVC008 06/06 Q1031

Tid: 13:26 (13:26 UTC)

Varsel

Denne rapporten ble laget for 2 timer og 23 minutter siden, klokken 11:03 UTC
Varsel gyldig fra 23. klokken 12 UTC til 23. klokken 21 UTC
Vind 5 kt fra Nordøst
Sikt: 7000 m
Brutte skyer i en høyde av 700 ft
Blir
fra 23. klokken 12 UTC til 23. klokken 15 UTC
Sikt 10 km eller mer
Spredte skyer i en høyde av 1500 ft
Midlertidig
fra 23. klokken 12 UTC til 23. klokken 21 UTC
Sikt: 7000 m
Brutte skyer i en høyde av 900 ft

TAF: EGTE 231103Z 2312/2321 05005KT 7000 BKN007 BECMG 2312/2315 9999 SCT015 TEMPO 2312/2321 7000 BKN009

Værobservasjoner og værvarsel for over 4000 flyplasser (METAR- og TAF-rapporter).

Tilgjengelige stasjoner er representert av de røde og gule prikkene på kartet.

Hold musepekeren over prikken for å se navnet på stasjonen.

Klikk så for å se værobservasjoner og -varsler.

For å forandre kartet kan du klikke på den grønne knappen med svart kryss for å zoome inn, på den grønne knappen med strek for å zoome ut, eller på de grønne pilene for å se tilstøtende kart.


METAR-TAF: